New Orleans, Louisiana
Current Conditions -  °F | °C
As of 11:55 AM on Thursday 30 Oct 2014 (Local Time) from KVSH Reporting Station
Clear Clear  
Wind Chill: 21°   Ceiling: Unl
Heat Index: 21°   Visibility: 10mi
Dew Point:   Wind: 5mph
Humidity: 35%   Direction: 30°NNE
Pressure: 30.11"   Gusts: NA
Location:  29.95°N, 90.08°W
Report Text: KVSH 301655Z AUTO 03004KT 10SM CLR 21/05 A3011 RMK AO1
Loading
Personal Weather Stations






























Interactive Weather Map New forecast layout! Learn more

10-Day Weather Forecast

Advertisements
Track Severe Weather on mobile